Time;durP1;ratioP1;P1;durP2;ratioP2;P2;SDS_P1;SDS_P2;PMS_P1;PMS_P2;Temp;Humidity;BMP_temperature;BMP_pressure;BME280_temperature;BME280_humidity;BME280_pressure;Samples;Min_cycle;Max_cycle;Signal;HPM_P1;HPM_P2
2023/05/20 00:00:07;;;;;;;21.93;20.03;;;12.90;99.90;;;;;;4828861;29;20227;-52
2023/05/20 00:02:33;;;;;;;21.70;19.70;;;12.80;1.00;;;;;;4828854;29;20444;-50
2023/05/20 00:04:58;;;;;;;21.47;19.47;;;12.70;1.00;;;;;;4829945;29;20438;-53
2023/05/20 00:07:24;;;;;;;22.27;20.07;;;12.70;99.90;;;;;;4832520;29;20217;-50
2023/05/20 00:09:50;;;;;;;23.37;21.07;;;12.60;1.00;;;;;;4833007;29;20272;-49
2023/05/20 00:12:16;;;;;;;22.90;20.70;;;12.60;1.00;;;;;;4833995;29;20975;-49
2023/05/20 00:14:41;;;;;;;21.80;19.90;;;12.50;99.90;;;;;;4831824;29;20190;-53
2023/05/20 00:17:07;;;;;;;23.40;20.97;;;12.50;1.00;;;;;;4833466;29;20223;-50
2023/05/20 00:19:33;;;;;;;23.63;20.90;;;12.40;1.00;;;;;;4833164;29;20309;-51
2023/05/20 00:21:58;;;;;;;23.07;20.87;;;12.40;1.00;;;;;;4833041;29;20194;-52
2023/05/20 00:24:24;;;;;;;22.37;20.30;;;12.40;1.00;;;;;;4833171;29;20633;-51
2023/05/20 00:26:50;;;;;;;23.33;20.30;;;12.40;1.00;;;;;;4833404;29;20316;-44
2023/05/20 00:29:16;;;;;;;22.10;20.00;;;12.40;1.00;;;;;;4833617;29;20474;-49
2023/05/20 00:31:41;;;;;;;23.00;20.83;;;12.40;20.70;;;;;;4832941;29;20761;-50
2023/05/20 00:34:08;;;;;;;22.63;20.30;;;12.30;99.90;;;;;;4832591;29;20245;-53
2023/05/20 00:36:34;;;;;;;22.07;20.00;;;12.30;99.90;;;;;;4833304;29;20284;-50
2023/05/20 00:39:00;;;;;;;22.30;20.20;;;12.30;99.90;;;;;;4832628;29;20422;-54
2023/05/20 00:41:26;;;;;;;23.10;20.80;;;12.30;99.90;;;;;;4832656;29;20511;-51
2023/05/20 00:43:55;;;;;;;21.50;19.60;;;12.30;99.90;;;;;;4832818;29;20200;-49
2023/05/20 00:46:22;;;;;;;21.93;19.90;;;12.30;99.90;;;;;;4832628;29;20201;-49
2023/05/20 00:48:49;;;;;;;23.40;20.93;;;12.30;99.90;;;;;;4832480;29;20557;-51
2023/05/20 00:51:15;;;;;;;24.13;21.63;;;12.30;99.90;;;;;;4832617;29;20437;-53
2023/05/20 00:53:42;;;;;;;23.57;21.27;;;12.30;99.90;;;;;;4832680;29;20438;-46
2023/05/20 00:56:08;;;;;;;23.17;21.07;;;12.20;99.90;;;;;;4832453;29;21508;-50
2023/05/20 00:58:35;;;;;;;21.63;19.60;;;12.20;99.90;;;;;;4832621;29;20513;-51
2023/05/20 01:01:01;;;;;;;23.83;21.57;;;12.20;99.90;;;;;;4832504;29;20574;-51
2023/05/20 01:03:28;;;;;;;22.93;20.80;;;12.20;99.90;;;;;;4831511;29;20433;-50
2023/05/20 01:05:53;;;;;;;22.43;20.17;;;12.10;99.90;;;;;;4833075;29;20463;-50
2023/05/20 01:08:20;;;;;;;23.60;21.13;;;12.00;99.90;;;;;;4832039;29;21040;-49
2023/05/20 01:10:49;;;;;;;24.07;21.87;;;12.00;99.90;;;;;;4831984;29;20197;-51
2023/05/20 01:13:20;;;;;;;24.47;22.03;;;12.00;99.90;;;;;;4832068;29;20509;-50
2023/05/20 01:15:48;;;;;;;24.07;21.53;;;11.90;99.90;;;;;;4832148;29;20426;-51
2023/05/20 01:18:17;;;;;;;23.20;20.80;;;11.80;99.90;;;;;;4832124;29;20446;-52
2023/05/20 01:20:47;;;;;;;22.37;20.27;;;11.80;99.90;;;;;;4832132;29;20514;-54
2023/05/20 01:23:14;;;;;;;23.60;21.30;;;11.70;99.90;;;;;;4832085;29;20442;-49
2023/05/20 01:25:41;;;;;;;23.20;20.80;;;11.60;99.90;;;;;;4832175;29;20590;-49
2023/05/20 01:28:07;;;;;;;22.63;20.43;;;11.60;99.90;;;;;;4831646;29;20522;-52
2023/05/20 01:30:40;;;;;;;22.73;20.57;;;11.60;99.90;;;;;;4832025;29;20465;-50
2023/05/20 01:33:12;;;;;;;23.63;20.93;;;11.60;99.90;;;;;;4831595;29;20177;-49
2023/05/20 01:35:40;;;;;;;24.33;21.90;;;11.50;99.90;;;;;;4831316;29;20438;-52
2023/05/20 01:38:07;;;;;;;23.30;21.00;;;11.60;99.90;;;;;;4831268;29;20429;-50
2023/05/20 01:40:34;;;;;;;22.70;20.50;;;11.60;99.90;;;;;;4831700;29;20533;-51
2023/05/20 01:43:01;;;;;;;23.97;21.77;;;11.70;99.90;;;;;;4831666;29;20434;-53
2023/05/20 01:45:27;;;;;;;23.13;21.03;;;11.60;99.90;;;;;;4832047;29;20540;-52
2023/05/20 01:47:53;;;;;;;23.37;21.00;;;11.60;99.90;;;;;;4831276;29;20501;-53
2023/05/20 01:50:18;;;;;;;25.27;22.67;;;11.70;99.90;;;;;;4832014;29;20216;-51
2023/05/20 01:52:44;;;;;;;24.67;22.17;;;11.70;99.90;;;;;;4831477;29;20189;-50
2023/05/20 01:55:10;;;;;;;23.93;21.60;;;11.70;99.90;;;;;;4830397;29;20193;-49
2023/05/20 01:57:35;;;;;;;23.40;21.17;;;11.70;99.90;;;;;;4831564;29;20703;-51
2023/05/20 02:00:01;;;;;;;23.07;20.67;;;11.70;99.90;;;;;;4831507;29;20189;-49
2023/05/20 02:02:27;;;;;;;23.73;21.47;;;11.70;99.90;;;;;;4831056;29;20193;-53
2023/05/20 02:04:53;;;;;;;24.03;21.60;;;11.70;99.90;;;;;;4831256;29;20441;-52
2023/05/20 02:07:19;;;;;;;22.27;20.07;;;11.70;99.90;;;;;;4831748;29;20285;-52
2023/05/20 02:09:45;;;;;;;22.60;20.50;;;11.60;99.90;;;;;;4831583;29;20882;-50
2023/05/20 02:12:16;;;;;;;23.67;21.37;;;11.60;99.90;;;;;;4830861;29;20185;-51
2023/05/20 02:14:46;;;;;;;23.77;21.37;;;11.50;99.90;;;;;;4831058;29;20410;-51
2023/05/20 02:17:16;;;;;;;22.37;20.07;;;11.50;99.90;;;;;;4831418;29;20434;-48
2023/05/20 02:19:42;;;;;;;23.17;20.77;;;11.40;99.90;;;;;;4831211;29;20482;-48
2023/05/20 02:22:08;;;;;;;23.30;20.67;;;11.40;99.90;;;;;;4830889;29;20433;-50
2023/05/20 02:24:34;;;;;;;22.57;20.07;;;11.40;99.90;;;;;;4831320;29;20430;-51
2023/05/20 02:27:00;;;;;;;24.27;21.77;;;11.40;99.90;;;;;;4830568;29;20229;-49
2023/05/20 02:29:26;;;;;;;23.63;20.13;;;11.50;99.90;;;;;;4830345;29;20185;-51
2023/05/20 02:31:51;;;;;;;22.43;20.10;;;11.40;99.90;;;;;;4829951;29;21355;-46
2023/05/20 02:34:17;;;;;;;24.43;21.20;;;11.50;99.90;;;;;;4812589;29;20205;-50
2023/05/20 02:36:43;;;;;;;23.20;20.63;;;11.50;99.90;;;;;;4830795;29;20688;-49
2023/05/20 02:39:08;;;;;;;23.53;21.33;;;11.50;99.90;;;;;;4829932;29;20699;-49
2023/05/20 02:41:35;;;;;;;24.87;22.23;;;11.50;99.90;;;;;;4830846;29;20268;-53
2023/05/20 02:44:00;;;;;;;23.40;20.50;;;11.40;99.90;;;;;;4830508;29;20928;-52
2023/05/20 02:46:26;;;;;;;23.80;21.40;;;11.40;99.90;;;;;;4830411;29;20545;-47
2023/05/20 02:48:52;;;;;;;23.13;20.90;;;11.30;99.90;;;;;;4830708;29;20473;-48
2023/05/20 02:51:17;;;;;;;24.60;22.10;;;11.30;99.90;;;;;;4830604;29;20264;-52
2023/05/20 02:53:43;;;;;;;23.30;21.10;;;11.20;99.90;;;;;;4830823;29;20269;-52
2023/05/20 02:56:08;;;;;;;23.70;21.33;;;11.10;99.90;;;;;;4830460;29;20191;-52
2023/05/20 02:58:34;;;;;;;23.50;21.17;;;11.10;99.90;;;;;;4830336;29;20273;-48
2023/05/20 03:01:00;;;;;;;24.23;21.73;;;11.00;99.90;;;;;;4830481;29;20204;-51
2023/05/20 03:03:26;;;;;;;24.60;22.10;;;10.90;99.90;;;;;;4829812;29;20205;-49
2023/05/20 03:05:52;;;;;;;23.83;21.27;;;10.90;99.90;;;;;;4830517;29;20998;-52
2023/05/20 03:08:20;;;;;;;25.47;22.77;;;10.80;99.90;;;;;;4830480;29;20553;-53
2023/05/20 03:10:45;;;;;;;26.00;23.30;;;10.80;99.90;;;;;;4830258;29;20582;-44
2023/05/20 03:13:11;;;;;;;25.40;22.43;;;10.80;99.90;;;;;;4830607;29;20520;-49
2023/05/20 03:15:41;;;;;;;25.17;22.57;;;10.80;99.90;;;;;;4829723;29;20269;-53
2023/05/20 03:18:07;;;;;;;26.97;24.10;;;10.70;99.90;;;;;;4830274;29;20434;-52
2023/05/20 03:20:35;;;;;;;26.80;23.20;;;10.70;99.90;;;;;;4830340;29;20426;-52
2023/05/20 03:23:01;;;;;;;24.10;21.60;;;10.70;99.90;;;;;;4830303;29;20450;-50
2023/05/20 03:25:27;;;;;;;25.90;22.30;;;10.70;99.90;;;;;;4811768;29;20454;-51
2023/05/20 03:27:53;;;;;;;26.87;22.97;;;10.70;99.90;;;;;;4830025;29;21469;-54
2023/05/20 03:30:19;;;;;;;25.27;22.70;;;10.70;99.90;;;;;;4830491;29;20434;-44
2023/05/20 03:32:45;;;;;;;26.83;23.00;;;10.70;99.90;;;;;;4830283;29;21023;-50
2023/05/20 03:35:11;;;;;;;26.53;23.80;;;10.80;99.90;;;;;;4830164;29;20433;-51
2023/05/20 03:37:37;;;;;;;27.77;23.30;;;10.80;99.90;;;;;;4813459;29;20207;-51
2023/05/20 03:40:05;;;;;;;25.90;23.23;;;10.90;99.90;;;;;;4829958;29;20438;-52
2023/05/20 03:42:31;;;;;;;27.53;24.73;;;10.90;99.90;;;;;;4833279;29;20196;-51
2023/05/20 03:44:59;;;;;;;26.60;23.80;;;10.90;99.90;;;;;;4833767;29;20434;-50
2023/05/20 03:47:24;;;;;;;24.70;22.30;;;11.00;99.90;;;;;;4833162;29;20536;-47
2023/05/20 03:49:50;;;;;;;25.63;22.93;;;11.10;99.90;;;;;;4833919;29;20440;-50
2023/05/20 03:52:16;;;;;;;24.97;22.27;;;11.10;99.90;;;;;;4833832;29;20434;-47
2023/05/20 03:54:41;;;;;;;26.80;23.20;;;11.20;99.90;;;;;;4833664;29;20208;-51
2023/05/20 03:57:09;;;;;;;25.43;22.77;;;11.30;99.90;;;;;;4802681;29;20197;-52
2023/05/20 03:59:35;;;;;;;25.13;22.40;;;11.30;99.90;;;;;;4833240;29;20210;-48
2023/05/20 04:02:01;;;;;;;23.20;20.93;;;11.40;99.90;;;;;;4833425;29;20573;-49
2023/05/20 04:04:27;;;;;;;26.57;23.77;;;11.40;99.90;;;;;;4802310;29;20441;-51
2023/05/20 04:06:53;;;;;;;26.00;23.30;;;11.50;99.90;;;;;;4833156;29;20457;-53
2023/05/20 04:09:19;;;;;;;24.87;21.93;;;11.60;99.90;;;;;;4833304;29;21102;-51
2023/05/20 04:11:44;;;;;;;24.93;22.33;;;11.60;99.90;;;;;;4833233;29;20462;-50
2023/05/20 04:14:10;;;;;;;25.57;23.10;;;11.60;99.90;;;;;;4833580;29;20434;-49
2023/05/20 04:16:36;;;;;;;24.30;22.03;;;11.70;99.90;;;;;;4832832;29;20189;-49
2023/05/20 04:19:02;;;;;;;23.73;21.30;;;11.70;99.90;;;;;;4833460;29;20639;-50
2023/05/20 04:21:28;;;;;;;23.40;21.00;;;11.80;99.90;;;;;;4833041;29;20244;-47
2023/05/20 04:23:54;;;;;;;24.17;21.83;;;11.80;99.90;;;;;;4833124;29;20873;-54
2023/05/20 04:26:20;;;;;;;24.37;21.77;;;11.80;99.90;;;;;;4833270;29;20240;-51
2023/05/20 04:28:48;;;;;;;26.10;23.47;;;11.80;99.90;;;;;;4833461;29;21213;-49
2023/05/20 04:31:14;;;;;;;25.73;23.03;;;11.90;99.90;;;;;;4831944;29;20201;-52
2023/05/20 04:33:40;;;;;;;25.27;22.57;;;12.00;99.90;;;;;;4833046;29;20422;-45
2023/05/20 04:36:14;;;;;;;25.50;22.90;;;12.00;99.90;;;;;;4832990;29;20185;-42
2023/05/20 04:38:41;;;;;;;24.93;22.50;;;12.10;99.90;;;;;;4832806;29;20193;-45
2023/05/20 04:41:06;;;;;;;25.40;22.80;;;12.10;99.90;;;;;;4832956;29;20582;-44
2023/05/20 04:43:32;;;;;;;26.20;23.50;;;12.10;99.90;;;;;;4833257;29;20446;-44
2023/05/20 04:46:00;;;;;;;25.60;23.07;;;12.20;99.90;;;;;;4832444;29;20200;-42
2023/05/20 04:48:26;;;;;;;25.67;23.00;;;12.30;99.90;;;;;;4832789;29;20229;-42
2023/05/20 04:50:53;;;;;;;23.83;21.43;;;12.40;99.90;;;;;;4832593;29;20427;-43
2023/05/20 04:53:20;;;;;;;24.00;21.80;;;12.50;99.90;;;;;;4832312;29;20485;-43
2023/05/20 04:55:46;;;;;;;23.60;21.20;;;12.60;99.90;;;;;;4832514;29;20490;-44
2023/05/20 04:58:16;;;;;;;25.33;22.80;;;12.70;99.90;;;;;;4832687;29;20457;-43
2023/05/20 05:00:42;;;;;;;24.63;22.33;;;12.70;99.90;;;;;;4831781;29;20444;-44
2023/05/20 05:03:08;;;;;;;25.23;22.70;;;12.70;99.90;;;;;;4832325;29;20464;-46
2023/05/20 05:05:38;;;;;;;24.30;22.00;;;12.80;99.90;;;;;;4832356;29;20438;-43
2023/05/20 05:08:04;;;;;;;25.00;22.63;;;12.90;99.90;;;;;;4832687;29;20227;-42
2023/05/20 05:10:30;;;;;;;26.03;23.43;;;12.90;99.90;;;;;;4832621;29;20470;-46
2023/05/20 05:12:56;;;;;;;24.20;21.80;;;13.00;99.90;;;;;;4832105;29;20842;-42
2023/05/20 05:15:22;;;;;;;24.37;22.17;;;13.10;99.90;;;;;;4832460;29;20316;-42
2023/05/20 05:17:47;;;;;;;25.10;22.60;;;13.20;99.90;;;;;;4832190;29;20557;-44
2023/05/20 05:20:13;;;;;;;24.60;22.20;;;13.30;99.90;;;;;;4832532;29;20623;-42
2023/05/20 05:22:40;;;;;;;25.40;22.77;;;13.30;99.90;;;;;;4832269;29;20197;-42
2023/05/20 05:25:06;;;;;;;24.63;22.23;;;13.40;99.90;;;;;;4832039;29;20295;-48
2023/05/20 05:27:32;;;;;;;25.70;23.10;;;13.50;99.90;;;;;;4832288;29;20496;-42
2023/05/20 05:29:58;;;;;;;24.57;22.17;;;13.60;99.90;;;;;;4831370;29;20454;-50
2023/05/20 05:32:23;;;;;;;24.60;22.40;;;13.60;99.90;;;;;;4831747;29;20204;-52
2023/05/20 05:34:49;;;;;;;24.20;21.80;;;13.70;99.90;;;;;;4831806;29;20772;-50
2023/05/20 05:37:15;;;;;;;24.77;22.37;;;13.80;99.90;;;;;;4831632;29;20190;-50
2023/05/20 05:39:40;;;;;;;24.47;22.27;;;13.90;99.90;;;;;;4831501;29;20918;-46
2023/05/20 05:42:06;;;;;;;24.57;22.10;;;13.80;99.90;;;;;;4831174;29;20572;-50
2023/05/20 05:44:32;;;;;;;24.50;21.90;;;13.80;99.90;;;;;;4830176;29;20453;-52
2023/05/20 05:46:58;;;;;;;23.70;21.33;;;13.90;99.90;;;;;;4800350;29;20247;-53
2023/05/20 05:49:23;;;;;;;25.27;22.83;;;13.90;99.90;;;;;;4831586;29;20300;-53
2023/05/20 05:51:50;;;;;;;23.27;21.00;;;14.00;99.90;;;;;;4831831;29;20200;-50
2023/05/20 05:54:15;;;;;;;25.07;22.70;;;14.10;99.90;;;;;;4831630;29;20181;-52
2023/05/20 05:56:41;;;;;;;25.10;22.60;;;14.20;99.90;;;;;;4831723;29;20414;-49
2023/05/20 05:59:07;;;;;;;25.23;22.90;;;14.30;99.90;;;;;;4831621;29;20197;-50
2023/05/20 06:01:32;;;;;;;23.77;21.57;;;14.20;99.90;;;;;;4829817;29;20204;-49
2023/05/20 06:03:58;;;;;;;24.33;22.03;;;14.30;99.90;;;;;;4830975;29;20300;-44
2023/05/20 06:06:24;;;;;;;24.30;21.90;;;14.30;99.90;;;;;;4831689;29;21327;-47
2023/05/20 06:08:49;;;;;;;25.87;23.47;;;14.30;99.90;;;;;;4831485;29;20229;-47
2023/05/20 06:11:15;;;;;;;24.87;22.40;;;14.40;99.90;;;;;;4831312;29;20228;-50
2023/05/20 06:13:41;;;;;;;24.80;22.33;;;14.50;99.90;;;;;;4814735;29;20254;-52
2023/05/20 06:16:06;;;;;;;24.10;21.60;;;14.60;99.90;;;;;;4831417;29;20657;-52
2023/05/20 06:18:32;;;;;;;27.13;24.43;;;14.70;99.90;;;;;;4830832;29;20193;-51
2023/05/20 06:20:58;;;;;;;26.80;24.20;;;14.80;99.90;;;;;;4831334;29;20216;-49
2023/05/20 06:23:25;;;;;;;25.20;22.90;;;14.90;99.90;;;;;;4830733;29;20326;-49
2023/05/20 06:25:50;;;;;;;26.10;23.70;;;15.10;99.90;;;;;;4830497;29;20835;-50
2023/05/20 06:28:16;;;;;;;26.10;23.60;;;15.20;99.90;;;;;;4831350;29;20494;-47
2023/05/20 06:30:42;;;;;;;24.97;22.33;;;15.30;99.90;;;;;;4830507;29;20545;-48
